createdAt,value
2023-03-12T00:02:50.837Z,-2.43
2023-03-12T00:05:59.153Z,-2.58
2023-03-12T00:09:09.588Z,-2.62
2023-03-12T00:12:16.173Z,-2.71
2023-03-12T00:15:22.513Z,-2.67
2023-03-12T00:18:32.041Z,-2.87
2023-03-12T00:21:37.845Z,-2.83
2023-03-12T00:24:44.568Z,-2.80
2023-03-12T00:27:50.587Z,-2.79
2023-03-12T00:30:58.624Z,-2.85
2023-03-12T00:34:07.165Z,-2.94
2023-03-12T00:37:14.221Z,-2.96
2023-03-12T00:40:20.438Z,-2.87
2023-03-12T00:43:26.884Z,-2.96
2023-03-12T00:46:32.902Z,-3.03
2023-03-12T00:49:43.319Z,-3.03
2023-03-12T00:52:48.867Z,-2.87
2023-03-12T00:55:55.281Z,-3.02
2023-03-12T00:59:01.221Z,-3.11
2023-03-12T01:02:36.336Z,-3.23
2023-03-12T01:05:44.771Z,-3.37
2023-03-12T01:08:51.255Z,-3.22
2023-03-12T01:11:57.091Z,-3.14
2023-03-12T01:15:03.835Z,-3.25
2023-03-12T01:18:09.739Z,-3.17
2023-03-12T01:21:19.543Z,-3.19
2023-03-12T01:24:25.609Z,-3.14
2023-03-12T01:27:32.478Z,-3.32
2023-03-12T01:30:38.544Z,-3.27
2023-03-12T01:33:45.331Z,-3.25
2023-03-12T01:36:53.743Z,-3.12
2023-03-12T01:40:00.444Z,-3.17
2023-03-12T01:43:32.841Z,-3.14
2023-03-12T01:46:43.369Z,-3.25
2023-03-12T01:49:56.362Z,-3.19
2023-03-12T01:53:06.304Z,-3.16
2023-03-12T01:56:13.629Z,-3.15
2023-03-12T01:59:28.935Z,-3.26
2023-03-12T02:02:37.053Z,-3.23
2023-03-12T02:05:54.991Z,-3.16
2023-03-12T02:09:09.091Z,-3.27
2023-03-12T02:12:16.391Z,-3.25
2023-03-12T02:15:23.743Z,-3.32
2023-03-12T02:18:31.321Z,-3.37
2023-03-12T02:21:38.724Z,-3.40
2023-03-12T02:24:57.227Z,-3.53
2023-03-12T02:28:12.439Z,-3.43
2023-03-12T02:31:27.443Z,-3.45
2023-03-12T02:34:33.466Z,-3.44
2023-03-12T02:37:50.045Z,-3.41
2023-03-12T02:41:01.648Z,-3.64
2023-03-12T02:44:17.972Z,-3.78
2023-03-12T02:47:26.530Z,-3.70
2023-03-12T02:50:33.443Z,-3.68
2023-03-12T02:53:40.246Z,-3.79
2023-03-12T02:56:46.600Z,-3.76
2023-03-12T02:59:56.063Z,-3.88
2023-03-12T03:03:02.330Z,-3.81
2023-03-12T03:06:09.316Z,-3.92
2023-03-12T03:09:15.046Z,-3.91
2023-03-12T03:12:23.269Z,-3.89
2023-03-12T03:15:32.169Z,-3.90
2023-03-12T03:18:39.216Z,-3.95
2023-03-12T03:21:45.122Z,-3.94
2023-03-12T03:24:52.628Z,-4.07
2023-03-12T03:27:59.109Z,-4.32
2023-03-12T03:31:08.734Z,-4.25
2023-03-12T03:34:16.496Z,-4.29
2023-03-12T03:37:23.542Z,-4.16
2023-03-12T03:40:30.061Z,-4.20
2023-03-12T03:43:37.143Z,-4.22
2023-03-12T03:46:47.156Z,-4.11
2023-03-12T03:49:53.877Z,-4.12
2023-03-12T03:52:59.854Z,-4.11
2023-03-12T03:56:11.035Z,-4.01
2023-03-12T03:59:20.091Z,-3.97
2023-03-12T04:02:31.844Z,-5.31
2023-03-12T04:05:37.879Z,-4.10
2023-03-12T04:08:44.437Z,-4.07
2023-03-12T04:11:53.357Z,-4.11
2023-03-12T04:15:00.515Z,-4.07
2023-03-12T04:18:09.193Z,-4.12
2023-03-12T04:21:17.914Z,-4.11
2023-03-12T04:24:24.615Z,-4.07
2023-03-12T04:27:31.649Z,-4.10
2023-03-12T04:30:38.605Z,-4.07
2023-03-12T04:33:48.802Z,-4.07
2023-03-12T04:36:55.362Z,-4.07
2023-03-12T04:40:02.167Z,-3.99
2023-03-12T04:43:08.492Z,-4.14
2023-03-12T04:46:15.216Z,-4.11
2023-03-12T04:49:25.132Z,-4.16
2023-03-12T04:52:32.491Z,-4.15
2023-03-12T04:55:38.202Z,-4.14
2023-03-12T04:58:45.072Z,-4.10
2023-03-12T05:01:51.732Z,-4.10
2023-03-12T05:05:05.844Z,-4.09
2023-03-12T05:08:11.697Z,-4.09
2023-03-12T05:11:19.468Z,-4.10
2023-03-12T05:14:25.250Z,-4.06
2023-03-12T05:17:32.800Z,-3.99
2023-03-12T05:20:41.376Z,-3.93
2023-03-12T05:23:49.247Z,-3.89
2023-03-12T05:26:55.496Z,-3.87
2023-03-12T05:30:04.904Z,-3.78
2023-03-12T05:33:10.771Z,-3.68
2023-03-12T05:36:20.754Z,-3.70
2023-03-12T05:39:29.136Z,-3.93
2023-03-12T05:42:39.953Z,-3.51
2023-03-12T05:45:47.663Z,-3.37
2023-03-12T05:48:55.223Z,-3.46
2023-03-12T05:52:04.225Z,-3.37
2023-03-12T05:55:12.590Z,-3.31
2023-03-12T05:58:19.278Z,-3.26
2023-03-12T06:01:30.124Z,-3.30
2023-03-12T06:04:37.840Z,-3.18
2023-03-12T06:07:48.059Z,-3.11
2023-03-12T06:10:55.195Z,-3.14
2023-03-12T06:14:02.953Z,-3.09
2023-03-12T06:17:09.457Z,-3.05
2023-03-12T06:20:16.953Z,-3.01
2023-03-12T06:23:25.740Z,-3.00
2023-03-12T06:26:32.887Z,-2.89
2023-03-12T06:29:38.831Z,-2.85
2023-03-12T06:32:45.542Z,-2.79
2023-03-12T06:35:51.494Z,-2.67
2023-03-12T06:39:01.239Z,-2.53
2023-03-12T06:42:07.094Z,-2.47
2023-03-12T06:45:14.732Z,-2.33
2023-03-12T06:48:20.912Z,-2.14
2023-03-12T06:51:27.595Z,-2.10
2023-03-12T06:54:36.371Z,-2.05
2023-03-12T06:57:42.982Z,-1.99
2023-03-12T07:00:48.972Z,-2.21
2023-03-12T07:03:55.897Z,-2.08
2023-03-12T07:07:01.499Z,-2.06
2023-03-12T07:10:14.365Z,-2.01
2023-03-12T07:13:20.625Z,-1.94
2023-03-12T07:16:27.555Z,-1.98
2023-03-12T07:19:34.198Z,-1.88
2023-03-12T07:22:40.981Z,-1.85
2023-03-12T07:25:50.453Z,-1.87
2023-03-12T07:28:57.033Z,-1.83
2023-03-12T07:32:02.996Z,-1.83
2023-03-12T07:35:10.863Z,-3.08
2023-03-12T07:38:17.814Z,-2.01
2023-03-12T07:41:27.531Z,-3.06
2023-03-12T07:44:33.927Z,-2.03
2023-03-12T07:47:40.681Z,-2.02
2023-03-12T07:50:46.731Z,-1.81
2023-03-12T07:53:53.697Z,-1.72
2023-03-12T07:57:02.331Z,-1.75
2023-03-12T08:00:12.654Z,-1.62
2023-03-12T08:03:18.929Z,-1.62
2023-03-12T08:06:26.038Z,-1.72
2023-03-12T08:09:33.022Z,-1.81
2023-03-12T08:12:43.182Z,-1.80
2023-03-12T08:15:49.727Z,-1.90
2023-03-12T08:18:56.781Z,-1.97
2023-03-12T08:22:03.056Z,-2.14
2023-03-12T08:25:11.728Z,-2.23
2023-03-12T08:28:22.229Z,-2.02
2023-03-12T08:31:29.621Z,-2.19
2023-03-12T08:34:36.179Z,-2.07
2023-03-12T08:37:42.921Z,-1.95
2023-03-12T08:40:48.770Z,-1.81
2023-03-12T08:43:58.173Z,-1.74
2023-03-12T08:47:04.321Z,-1.70
2023-03-12T08:50:13.653Z,-1.48
2023-03-12T08:53:19.867Z,-1.55
2023-03-12T08:56:26.607Z,-1.53
2023-03-12T08:59:35.367Z,-1.58
2023-03-12T09:02:42.406Z,-1.57
2023-03-12T09:05:49.152Z,-1.43
2023-03-12T09:08:56.184Z,-1.23
2023-03-12T09:12:02.152Z,-1.20
2023-03-12T09:15:13.294Z,-1.13
2023-03-12T09:18:20.534Z,-1.16
2023-03-12T09:21:27.639Z,-0.87
2023-03-12T09:24:33.628Z,-0.57
2023-03-12T09:27:41.737Z,-0.59
2023-03-12T09:30:51.773Z,-0.62
2023-03-12T09:33:58.926Z,-0.53
2023-03-12T09:37:04.942Z,-0.37
2023-03-12T09:40:20.244Z,-0.18
2023-03-12T09:43:35.181Z,0.10
2023-03-12T09:46:53.987Z,0.16
2023-03-12T09:50:08.934Z,0.37
2023-03-12T09:53:30.537Z,0.34
2023-03-12T09:56:37.931Z,0.63
2023-03-12T09:59:44.862Z,0.53
2023-03-12T10:03:29.760Z,0.51
2023-03-12T10:06:47.351Z,0.44
2023-03-12T10:10:33.383Z,0.18
2023-03-12T10:14:13.102Z,0.33
2023-03-12T10:17:50.072Z,0.09
2023-03-12T10:21:17.438Z,0.07
2023-03-12T10:24:45.790Z,0.06
2023-03-12T10:27:53.482Z,-0.19
2023-03-12T10:31:06.649Z,-0.23
2023-03-12T10:34:24.786Z,-0.05
2023-03-12T10:37:43.208Z,0.06
2023-03-12T10:40:51.593Z,0.13
2023-03-12T10:44:02.325Z,0.27
2023-03-12T10:47:26.926Z,0.05
2023-03-12T10:50:35.772Z,0.23
2023-03-12T10:53:48.305Z,0.17
2023-03-12T10:56:54.955Z,0.09
2023-03-12T11:00:13.244Z,0.28
2023-03-12T11:03:26.187Z,0.57
2023-03-12T11:06:34.290Z,0.70
2023-03-12T11:09:42.674Z,0.56
2023-03-12T11:13:02.893Z,0.53
2023-03-12T11:16:32.294Z,0.54
2023-03-12T11:19:40.616Z,0.57
2023-03-12T11:22:46.259Z,0.50
2023-03-12T11:26:04.036Z,0.60
2023-03-12T11:29:25.953Z,0.77
2023-03-12T11:32:39.390Z,0.64
2023-03-12T11:36:10.523Z,0.81
2023-03-12T11:39:34.822Z,0.92
2023-03-12T11:43:24.073Z,0.85
2023-03-12T11:46:59.763Z,0.96
2023-03-12T11:50:29.711Z,1.09
2023-03-12T11:53:59.973Z,1.10
2023-03-12T11:57:19.420Z,1.29
2023-03-12T12:00:42.687Z,1.35
2023-03-12T12:04:17.774Z,1.33
2023-03-12T12:07:47.711Z,1.19
2023-03-12T12:11:13.205Z,1.29
2023-03-12T12:14:47.058Z,1.22
2023-03-12T12:18:11.231Z,1.64
2023-03-12T12:21:47.234Z,1.65
2023-03-12T12:25:27.112Z,1.44
2023-03-12T12:29:02.506Z,1.18
2023-03-12T12:32:20.963Z,1.44
2023-03-12T12:35:40.451Z,1.57
2023-03-12T12:38:54.376Z,1.69
2023-03-12T12:42:09.277Z,1.76
2023-03-12T12:45:18.892Z,1.65
2023-03-12T12:48:36.799Z,1.55
2023-03-12T12:51:53.840Z,1.54
2023-03-12T12:55:14.078Z,1.48
2023-03-12T12:58:36.887Z,1.50
2023-03-12T13:01:44.750Z,1.52
2023-03-12T13:04:53.065Z,1.30
2023-03-12T13:08:02.390Z,1.23
2023-03-12T13:11:27.038Z,1.29
2023-03-12T13:14:44.256Z,1.30
2023-03-12T13:18:12.362Z,1.40
2023-03-12T13:21:39.066Z,1.66
2023-03-12T13:25:01.326Z,1.94
2023-03-12T13:28:42.541Z,2.19
2023-03-12T13:31:51.345Z,2.03
2023-03-12T13:35:01.626Z,2.08
2023-03-12T13:38:14.879Z,2.18
2023-03-12T13:41:39.034Z,2.34
2023-03-12T13:44:44.802Z,2.25
2023-03-12T13:48:06.379Z,2.34
2023-03-12T13:51:22.025Z,2.29
2023-03-12T13:54:36.764Z,2.29
2023-03-12T13:57:51.029Z,2.38
2023-03-12T14:01:04.479Z,2.32
2023-03-12T14:04:21.731Z,2.23
2023-03-12T14:08:13.975Z,2.30
2023-03-12T14:11:54.139Z,2.46
2023-03-12T14:15:27.149Z,2.55
2023-03-12T14:18:39.346Z,2.75
2023-03-12T14:21:51.451Z,2.73
2023-03-12T14:25:04.680Z,2.83
2023-03-12T14:28:22.526Z,2.82
2023-03-12T14:31:34.882Z,2.89
2023-03-12T14:34:49.241Z,2.88
2023-03-12T14:38:07.184Z,2.96
2023-03-12T14:41:24.746Z,3.00
2023-03-12T14:44:34.192Z,2.84
2023-03-12T14:47:49.803Z,2.94
2023-03-12T14:50:56.047Z,2.73
2023-03-12T14:54:06.735Z,2.64
2023-03-12T14:57:25.179Z,2.70
2023-03-12T15:00:33.419Z,2.79
2023-03-12T15:03:50.397Z,2.80
2023-03-12T15:07:04.753Z,2.78
2023-03-12T15:10:25.114Z,2.84
2023-03-12T15:13:32.336Z,2.82
2023-03-12T15:16:39.785Z,2.76
2023-03-12T15:19:52.131Z,2.81
2023-03-12T15:22:59.807Z,2.82
2023-03-12T15:26:21.945Z,2.94
2023-03-12T15:29:33.804Z,3.00
2023-03-12T15:32:40.879Z,3.00
2023-03-12T15:36:07.788Z,2.96
2023-03-12T15:39:32.210Z,2.92
2023-03-12T15:42:46.873Z,2.96
2023-03-12T15:46:03.963Z,2.97
2023-03-12T15:49:21.880Z,2.96
2023-03-12T15:52:36.126Z,2.92
2023-03-12T15:55:44.796Z,2.75
2023-03-12T15:59:03.264Z,2.55
2023-03-12T16:02:15.680Z,2.27
2023-03-12T16:05:25.111Z,2.55
2023-03-12T16:08:44.410Z,2.50
2023-03-12T16:11:52.738Z,2.46
2023-03-12T16:14:58.949Z,2.45
2023-03-12T16:18:06.194Z,2.35
2023-03-12T16:21:13.298Z,2.34
2023-03-12T16:24:23.167Z,2.27
2023-03-12T16:27:32.745Z,2.31
2023-03-12T16:30:40.715Z,2.25
2023-03-12T16:33:47.515Z,2.22
2023-03-12T16:36:54.638Z,2.03
2023-03-12T16:40:04.377Z,2.13
2023-03-12T16:43:21.099Z,2.13
2023-03-12T16:46:34.715Z,2.10
2023-03-12T16:49:41.871Z,2.07
2023-03-12T16:52:51.367Z,2.13
2023-03-12T16:56:06.456Z,2.17
2023-03-12T16:59:28.214Z,2.27
2023-03-12T17:02:35.699Z,2.27
2023-03-12T17:05:41.734Z,2.04
2023-03-12T17:08:50.380Z,2.30
2023-03-12T17:11:59.859Z,2.30
2023-03-12T17:15:15.209Z,2.31
2023-03-12T17:18:22.683Z,2.31
2023-03-12T17:21:29.947Z,2.31
2023-03-12T17:24:36.645Z,2.28
2023-03-12T17:27:52.547Z,2.04
2023-03-12T17:30:59.298Z,2.20
2023-03-12T17:34:06.182Z,2.18
2023-03-12T17:37:12.418Z,2.17
2023-03-12T17:40:20.608Z,2.14
2023-03-12T17:43:30.494Z,2.17
2023-03-12T17:46:40.689Z,2.19
2023-03-12T17:49:54.118Z,2.23
2023-03-12T17:53:01.476Z,2.17
2023-03-12T17:56:07.904Z,2.12
2023-03-12T17:59:18.564Z,2.15
2023-03-12T18:02:25.447Z,2.08
2023-03-12T18:05:32.737Z,2.07
2023-03-12T18:08:39.512Z,2.00
2023-03-12T18:11:47.223Z,2.00
2023-03-12T18:14:56.253Z,1.97
2023-03-12T18:18:03.620Z,1.98
2023-03-12T18:21:10.390Z,2.00
2023-03-12T18:24:17.551Z,2.02
2023-03-12T18:27:23.758Z,2.00
2023-03-12T18:30:34.184Z,2.03
2023-03-12T18:33:41.988Z,2.13
2023-03-12T18:36:48.856Z,2.16
2023-03-12T18:39:54.923Z,2.16
2023-03-12T18:43:03.319Z,2.18
2023-03-12T18:46:13.343Z,2.20
2023-03-12T18:49:20.382Z,2.13
2023-03-12T18:52:26.435Z,2.16
2023-03-12T18:55:34.457Z,2.11
2023-03-12T18:58:40.667Z,2.10
2023-03-12T19:01:50.797Z,2.10
2023-03-12T19:04:57.266Z,2.07
2023-03-12T19:08:04.420Z,2.05
2023-03-12T19:11:15.082Z,2.04
2023-03-12T19:14:21.961Z,1.92
2023-03-12T19:17:31.099Z,2.09
2023-03-12T19:20:38.049Z,2.10
2023-03-12T19:23:44.244Z,2.07
2023-03-12T19:26:51.231Z,2.08
2023-03-12T19:29:57.325Z,2.09
2023-03-12T19:33:07.510Z,2.14
2023-03-12T19:36:14.142Z,2.17
2023-03-12T19:39:21.870Z,2.12
2023-03-12T19:42:28.323Z,2.23
2023-03-12T19:45:35.563Z,2.21
2023-03-12T19:48:44.959Z,2.25
2023-03-12T19:51:52.263Z,2.21
2023-03-12T19:55:04.857Z,2.21
2023-03-12T19:58:12.988Z,2.19
2023-03-12T20:01:19.391Z,2.22
2023-03-12T20:04:29.832Z,2.16
2023-03-12T20:07:36.407Z,2.22
2023-03-12T20:10:43.531Z,2.26
2023-03-12T20:13:49.561Z,2.24
2023-03-12T20:16:56.739Z,2.24
2023-03-12T20:20:06.754Z,2.28
2023-03-12T20:23:14.190Z,2.28
2023-03-12T20:26:20.288Z,2.32
2023-03-12T20:29:28.137Z,2.30
2023-03-12T20:32:34.386Z,2.27
2023-03-12T20:35:44.595Z,2.19
2023-03-12T20:38:52.985Z,2.25
2023-03-12T20:41:59.946Z,2.21
2023-03-12T20:45:06.176Z,2.18
2023-03-12T20:48:14.757Z,2.25
2023-03-12T20:51:23.406Z,2.30
2023-03-12T20:54:30.619Z,2.28
2023-03-12T20:57:37.692Z,2.22
2023-03-12T21:00:44.671Z,2.29
2023-03-12T21:03:50.830Z,2.33
2023-03-12T21:07:00.353Z,2.34
2023-03-12T21:10:06.457Z,2.41
2023-03-12T21:13:13.325Z,2.41
2023-03-12T21:16:19.227Z,2.40
2023-03-12T21:19:27.258Z,2.44
2023-03-12T21:22:36.236Z,2.44
2023-03-12T21:25:44.916Z,2.47
2023-03-12T21:28:50.875Z,2.41
2023-03-12T21:31:57.871Z,2.43
2023-03-12T21:35:03.920Z,2.49
2023-03-12T21:38:13.533Z,2.53
2023-03-12T21:41:22.489Z,2.58
2023-03-12T21:44:29.125Z,2.54
2023-03-12T21:47:34.888Z,2.62
2023-03-12T21:50:41.467Z,2.63
2023-03-12T21:53:49.995Z,2.60
2023-03-12T21:56:56.681Z,2.62
2023-03-12T22:00:02.542Z,2.66
2023-03-12T22:03:10.919Z,2.61
2023-03-12T22:06:19.763Z,2.68
2023-03-12T22:09:30.036Z,2.68
2023-03-12T22:12:35.896Z,2.66
2023-03-12T22:15:42.486Z,2.67
2023-03-12T22:18:50.244Z,2.68
2023-03-12T22:21:56.939Z,2.64
2023-03-12T22:25:05.909Z,2.63
2023-03-12T22:28:12.498Z,2.62
2023-03-12T22:31:18.314Z,2.57
2023-03-12T22:34:25.186Z,2.57
2023-03-12T22:37:31.140Z,2.58
2023-03-12T22:40:40.864Z,2.58
2023-03-12T22:43:47.879Z,2.56
2023-03-12T22:46:55.155Z,2.56
2023-03-12T22:50:00.876Z,2.53
2023-03-12T22:53:07.389Z,2.52
2023-03-12T22:56:17.922Z,2.50
2023-03-12T22:59:24.637Z,2.44
2023-03-12T23:02:30.696Z,2.43
2023-03-12T23:05:38.254Z,2.45
2023-03-12T23:08:47.512Z,2.47
2023-03-12T23:11:57.215Z,2.55
2023-03-12T23:15:03.037Z,2.62
2023-03-12T23:18:09.578Z,2.64
2023-03-12T23:21:19.259Z,2.62
2023-03-12T23:24:25.782Z,2.73
2023-03-12T23:27:34.767Z,2.82
2023-03-12T23:30:41.342Z,2.82
2023-03-12T23:33:48.425Z,2.78
2023-03-12T23:36:55.029Z,2.88
2023-03-12T23:40:00.641Z,2.82
2023-03-12T23:43:10.266Z,2.74
2023-03-12T23:46:18.491Z,2.80
2023-03-12T23:49:25.701Z,2.85
2023-03-12T23:52:31.380Z,2.85
2023-03-12T23:55:37.972Z,2.94
2023-03-12T23:58:47.963Z,2.99
